Time;durP1;ratioP1;P1;durP2;ratioP2;P2;SDS_P1;SDS_P2;PMS_P1;PMS_P2;Temp;Humidity;BMP_temperature;BMP_pressure;BME280_temperature;BME280_humidity;BME280_pressure;Samples;Min_cycle;Max_cycle;Signal;HPM_P1;HPM_P2
2022/12/28 00:01:07;;;;;;;14.50;8.32;;;;;;;7.87;82.52;101022.94;5089450;28;20111;-27
2022/12/28 00:03:33;;;;;;;26.15;13.30;;;;;;;7.95;81.56;101049.44;5089645;28;20024;-27
2022/12/28 00:05:58;;;;;;;47.90;24.77;;;;;;;7.73;82.54;101039.66;5089581;28;20672;-31
2022/12/28 00:08:24;;;;;;;43.45;21.52;;;;;;;7.73;82.55;101047.59;5089516;28;20039;-26
2022/12/28 00:10:49;;;;;;;22.23;12.40;;;;;;;7.81;82.13;101032.44;5089992;28;20403;-27
2022/12/28 00:13:15;;;;;;;53.65;28.55;;;;;;;7.68;82.64;101034.84;5071248;28;20028;-27
2022/12/28 00:15:40;;;;;;;25.27;12.35;;;;;;;7.96;81.76;101036.97;5071240;28;20031;-27
2022/12/28 00:18:05;;;;;;;29.42;18.27;;;;;;;8.16;80.85;101043.47;5071299;28;20040;-27
2022/12/28 00:20:31;;;;;;;23.10;13.30;;;;;;;8.09;81.33;101047.00;5089464;28;20115;-31
2022/12/28 00:22:56;;;;;;;9.90;5.97;;;;;;;8.18;79.66;101024.69;5089165;28;20522;-27
2022/12/28 00:25:22;;;;;;;10.55;6.28;;;;;;;8.20;79.84;101043.94;5089229;28;20063;-27
2022/12/28 00:27:47;;;;;;;12.27;5.45;;;;;;;8.27;78.48;101023.59;5089372;28;20028;-28
2022/12/28 00:30:13;;;;;;;10.80;5.30;;;;;;;8.48;77.03;101030.09;5088976;28;20024;-26
2022/12/28 00:32:38;;;;;;;11.30;4.70;;;;;;;8.57;75.78;101034.31;5092703;28;20062;-26
2022/12/28 00:35:04;;;;;;;10.10;4.53;;;;;;;8.72;75.49;101053.75;5093563;28;20055;-28
2022/12/28 00:37:31;;;;;;;9.90;4.95;;;;;;;8.74;75.30;101051.75;5093433;28;20157;-26
2022/12/28 00:39:57;;;;;;;9.90;4.43;;;;;;;8.91;73.93;101040.94;5093477;28;20020;-26
2022/12/28 00:42:22;;;;;;;8.50;4.32;;;;;;;8.95;73.23;101053.69;5092937;28;20415;-27
2022/12/28 00:44:48;;;;;;;7.82;4.03;;;;;;;8.99;73.09;101054.97;5092946;28;20028;-30
2022/12/28 00:47:13;;;;;;;12.27;4.65;;;;;;;8.94;73.00;101059.19;5093342;28;20115;-27
2022/12/28 00:49:39;;;;;;;5.90;3.60;;;;;;;8.94;72.26;101051.22;5093334;28;20028;-27
2022/12/28 00:52:04;;;;;;;8.35;3.67;;;;;;;9.21;70.92;101066.53;5092980;28;20042;-27
2022/12/28 00:54:29;;;;;;;9.48;4.07;;;;;;;9.29;70.42;101070.09;5093241;28;20032;-26
2022/12/28 00:56:55;;;;;;;8.32;4.00;;;;;;;9.29;70.78;101076.22;5092991;28;20032;-29
2022/12/28 00:59:20;;;;;;;6.72;3.80;;;;;;;9.30;70.32;101074.41;5092577;28;20407;-27
2022/12/28 01:01:45;;;;;;;11.18;5.82;;;;;;;9.30;69.83;101056.59;5092886;28;20032;-28
2022/12/28 01:04:11;;;;;;;12.88;4.57;;;;;;;9.46;69.33;101076.88;5092658;28;20399;-30
2022/12/28 01:06:36;;;;;;;7.05;4.13;;;;;;;9.41;69.85;101074.75;5074872;28;20115;-27
2022/12/28 01:09:02;;;;;;;10.82;4.25;;;;;;;9.34;70.10;101078.34;5092774;28;20090;-26
2022/12/28 01:11:29;;;;;;;8.90;5.65;;;;;;;9.26;70.91;101060.66;5074509;28;20024;-26
2022/12/28 01:13:57;;;;;;;19.20;14.60;;;;;;;9.24;70.95;101057.34;5092510;28;20061;-29
2022/12/28 01:16:32;;;;;;;10.70;7.47;;;;;;;9.31;71.45;101068.06;5092707;28;20032;-27
2022/12/28 01:19:00;;;;;;;11.02;6.32;;;;;;;9.32;71.50;101070.56;5074455;28;20075;-26
2022/12/28 01:21:28;;;;;;;9.27;5.30;;;;;;;9.18;71.93;101048.25;5092497;28;20052;-27
2022/12/28 01:23:56;;;;;;;14.40;11.48;;;;;;;9.04;72.50;101044.59;5091380;28;20483;-26
2022/12/28 01:26:22;;;;;;;10.63;7.70;;;;;;;9.33;71.87;101061.53;5092197;28;20036;-29
2022/12/28 01:28:47;;;;;;;10.77;5.60;;;;;;;9.28;71.40;101065.78;5092710;28;20115;-27
2022/12/28 01:31:15;;;;;;;16.70;10.48;;;;;;;9.11;72.65;101067.81;5074337;28;20559;-27
2022/12/28 01:33:43;;;;;;;19.75;15.63;;;;;;;9.02;73.08;101075.06;5092550;28;20270;-27
2022/12/28 01:36:12;;;;;;;35.97;30.52;;;;;;;8.89;72.74;101048.25;5091984;28;20479;-26
2022/12/28 01:38:38;;;;;;;85.65;72.63;;;;;;;9.04;72.53;101057.09;5092360;28;20476;-28
2022/12/28 01:41:06;;;;;;;106.22;82.40;;;;;;;9.36;71.83;101077.16;5092311;28;20034;-28
2022/12/28 01:43:50;;;;;;;112.85;86.40;;;;;;;9.44;71.08;101085.03;5073553;28;20473;-28
2022/12/28 01:46:36;;;;;;;90.70;69.43;;;;;;;9.28;72.38;101079.09;5092001;28;20028;-26
2022/12/28 01:49:16;;;;;;;44.30;33.60;;;;;;;8.99;73.04;101089.56;5091688;28;20417;-27
2022/12/28 01:52:00;;;;;;;29.65;22.77;;;;;;;8.87;73.46;101098.16;5092321;28;20055;-26
2022/12/28 01:54:29;;;;;;;14.50;8.98;;;;;;;8.96;73.08;101086.44;5092143;28;20040;-27
2022/12/28 01:56:54;;;;;;;23.90;17.23;;;;;;;8.98;73.25;101084.41;5073774;28;20031;-28
2022/12/28 01:59:23;;;;;;;29.98;24.45;;;;;;;8.95;72.88;101084.78;5073615;28;20028;-29
2022/12/28 02:01:48;;;;;;;12.32;7.95;;;;;;;8.90;73.19;101082.66;5091646;28;20035;-28
2022/12/28 02:04:14;;;;;;;40.97;32.22;;;;;;;8.92;72.61;101069.19;5091781;28;20028;-27
2022/12/28 02:06:39;;;;;;;28.27;22.23;;;;;;;9.05;72.24;101074.69;5091913;28;20043;-27
2022/12/28 02:09:17;;;;;;;31.30;19.40;;;;;;;8.94;72.39;101059.19;5073680;28;20032;-27
2022/12/28 02:11:43;;;;;;;61.42;38.17;;;;;;;8.93;73.16;101074.34;5090263;28;20090;-32
2022/12/28 02:14:10;;;;;;;50.08;36.17;;;;;;;8.93;72.99;101068.16;5091815;28;20495;-28
2022/12/28 02:16:35;;;;;;;19.95;14.38;;;;;;;8.89;72.42;101064.22;5091377;28;20497;-28
2022/12/28 02:19:02;;;;;;;16.55;13.13;;;;;;;8.80;72.92;101063.50;5091687;28;20036;-26
2022/12/28 02:21:49;;;;;;;11.68;6.45;;;;;;;8.78;73.42;101074.31;5091467;28;20139;-26
2022/12/28 02:24:35;;;;;;;12.55;7.22;;;;;;;9.04;72.40;101075.72;5091239;28;20089;-28
2022/12/28 02:27:26;;;;;;;12.20;7.22;;;;;;;8.60;74.36;101049.91;5090617;28;20127;-26
2022/12/28 02:30:13;;;;;;;12.73;8.18;;;;;;;8.52;75.34;101068.59;5090135;28;20024;-27
2022/12/28 02:32:51;;;;;;;12.23;7.82;;;;;;;8.37;76.12;101073.84;5091459;28;20085;-28
2022/12/28 02:35:37;;;;;;;12.65;7.47;;;;;;;8.19;76.77;101068.84;5090929;28;20088;-27
2022/12/28 02:38:08;;;;;;;12.35;7.03;;;;;;;8.16;77.06;101071.88;5090988;28;20679;-26
2022/12/28 02:40:44;;;;;;;15.85;9.85;;;;;;;8.05;76.66;101050.03;5091187;28;20054;-29
2022/12/28 02:43:09;;;;;;;15.00;8.45;;;;;;;8.01;77.24;101067.34;5090968;28;20024;-25
2022/12/28 02:51:37;;;;;;;14.68;10.38;;;;;;;8.19;76.36;101082.97;5090989;28;20186;-29
2022/12/28 02:57:50;;;;;;;20.10;13.18;;;;;;;8.26;75.33;101059.16;5059453;28;20043;-29
2022/12/28 03:00:19;;;;;;;703.78;453.52;;;;;;;8.23;76.30;101083.44;5090048;28;20028;-28
2022/12/28 03:03:06;;;;;;;765.17;433.25;;;;;;;8.14;77.24;101081.84;5072526;28;20434;-28
2022/12/28 03:09:02;;;;;;;117.32;103.88;;;;;;;8.20;76.38;101081.13;5090333;28;20083;-27
2022/12/28 03:11:53;;;;;;;40.55;35.63;;;;;;;8.22;76.19;101087.09;5072469;28;20058;-26
2022/12/28 03:14:35;;;;;;;40.38;34.75;;;;;;;8.16;76.49;101082.50;5066655;28;20039;-26
2022/12/28 03:31:09;;;;;;;39.40;36.20;;;;;;;8.24;75.97;101098.38;5090381;28;20560;-26
2022/12/28 03:33:38;;;;;;;19.38;17.38;;;;;;;8.24;75.72;101098.38;5089754;28;20046;-28
2022/12/28 03:36:17;;;;;;;13.15;11.40;;;;;;;8.19;75.78;101098.06;5089955;28;20074;-26
2022/12/28 03:39:01;;;;;;;38.30;34.10;;;;;;;8.20;75.48;101089.09;5071725;28;20050;-27
2022/12/28 03:41:31;;;;;;;56.10;41.70;;;;;;;8.38;74.39;101081.66;5090148;28;20016;-27
2022/12/28 03:44:02;;;;;;;52.13;39.55;;;;;;;8.45;74.25;101100.38;5089696;28;20428;-27
2022/12/28 03:46:42;;;;;;;228.98;165.40;;;;;;;8.35;74.36;101094.47;5090159;28;20024;-27
2022/12/28 03:49:08;;;;;;;91.28;63.15;;;;;;;8.30;74.53;101108.28;5071689;28;20024;-27
2022/12/28 03:51:34;;;;;;;129.18;83.22;;;;;;;8.21;74.26;101074.81;5089733;28;20583;-26
2022/12/28 03:53:59;;;;;;;74.93;47.22;;;;;;;8.15;75.36;101104.75;5089706;28;20107;-33
2022/12/28 03:56:26;;;;;;;239.90;130.68;;;;;;;8.45;73.80;101106.53;5089448;28;20020;-27
2022/12/28 03:58:53;;;;;;;110.57;57.38;;;;;;;8.23;74.72;101102.03;5071619;28;20479;-26
2022/12/28 04:01:18;;;;;;;48.85;33.88;;;;;;;8.14;75.20;101119.88;5071620;28;20036;-29
2022/12/28 04:03:44;;;;;;;15.88;9.48;;;;;;;8.01;75.71;101101.03;5089566;28;20450;-28
2022/12/28 04:06:15;;;;;;;14.15;8.68;;;;;;;8.00;75.69;101108.16;5089082;28;20054;-26
2022/12/28 04:08:44;;;;;;;42.47;27.45;;;;;;;7.93;75.88;101123.16;5089635;28;20040;-27
2022/12/28 04:11:11;;;;;;;14.98;8.27;;;;;;;7.90;76.68;101143.94;5071065;28;20031;-30
2022/12/28 04:13:36;;;;;;;13.73;6.22;;;;;;;7.95;76.44;101141.59;5089674;28;20024;-26
2022/12/28 04:16:08;;;;;;;12.35;6.25;;;;;;;7.72;76.41;101141.53;5089149;28;20039;-29
2022/12/28 04:18:34;;;;;;;31.95;18.20;;;;;;;7.74;76.61;101142.19;5089700;28;20039;-26
2022/12/28 04:20:59;;;;;;;17.38;9.90;;;;;;;7.55;77.31;101135.47;5089048;28;20403;-27
2022/12/28 04:23:26;;;;;;;36.38;22.67;;;;;;;7.44;77.72;101131.38;5071121;28;20035;-27
2022/12/28 04:26:04;;;;;;;21.02;11.57;;;;;;;7.31;78.99;101153.13;5089361;28;20046;-26
2022/12/28 04:28:30;;;;;;;12.68;7.68;;;;;;;7.03;79.54;101131.50;5089780;28;20487;-27
2022/12/28 04:30:57;;;;;;;13.52;7.40;;;;;;;7.17;79.84;101153.84;5071298;28;20503;-32
2022/12/28 04:33:22;;;;;;;12.95;7.38;;;;;;;7.20;79.25;101138.41;5089313;28;20415;-27
2022/12/28 04:35:48;;;;;;;13.77;8.38;;;;;;;7.23;79.43;101154.00;5089350;28;20036;-26
2022/12/28 04:38:14;;;;;;;14.65;8.13;;;;;;;7.08;79.69;101137.13;5088929;28;20088;-26
2022/12/28 04:40:39;;;;;;;11.60;7.53;;;;;;;7.04;80.23;101133.97;5089591;28;20467;-25
2022/12/28 04:43:05;;;;;;;11.00;6.65;;;;;;;7.30;79.59;101155.97;5071218;28;20543;-26
2022/12/28 04:45:30;;;;;;;11.93;6.97;;;;;;;7.34;78.72;101144.03;5089382;28;20617;-27
2022/12/28 04:47:56;;;;;;;13.93;7.15;;;;;;;7.48;78.68;101161.88;5089580;28;20024;-28
2022/12/28 04:50:22;;;;;;;12.68;6.93;;;;;;;7.55;78.61;101162.03;5089006;28;20109;-26
2022/12/28 04:52:47;;;;;;;11.43;6.10;;;;;;;7.27;79.40;101166.91;5089042;28;20442;-28
2022/12/28 04:55:13;;;;;;;21.20;6.93;;;;;;;7.29;79.47;101156.97;5071497;28;20042;-28
2022/12/28 04:57:38;;;;;;;24.95;22.10;;;;;;;7.30;79.40;101153.31;5089357;28;20035;-28
2022/12/28 05:00:04;;;;;;;11.65;7.60;;;;;;;7.08;80.13;101138.94;5070797;28;20471;-27
2022/12/28 05:02:30;;;;;;;11.68;6.82;;;;;;;7.20;80.83;101162.28;5088979;28;20020;-27
2022/12/28 05:04:55;;;;;;;11.45;7.53;;;;;;;7.47;80.08;101162.88;5088930;28;20391;-26
2022/12/28 05:07:21;;;;;;;22.77;18.63;;;;;;;7.53;79.42;101164.84;5088929;28;20024;-26
2022/12/28 05:09:46;;;;;;;29.88;21.98;;;;;;;7.39;79.80;101144.31;5089170;28;20059;-27
2022/12/28 05:12:12;;;;;;;23.25;14.32;;;;;;;7.55;79.12;101159.38;5087560;28;20020;-26
2022/12/28 05:14:37;;;;;;;22.67;15.18;;;;;;;7.41;79.65;101142.31;5089043;28;20035;-27
2022/12/28 05:17:03;;;;;;;21.20;14.95;;;;;;;7.36;78.67;101126.09;5089757;28;20034;-28
2022/12/28 05:19:28;;;;;;;25.42;16.83;;;;;;;7.54;79.01;101155.91;5092926;28;20399;-26
2022/12/28 05:21:53;;;;;;;19.75;12.13;;;;;;;7.42;79.26;101146.66;5092287;28;20056;-26
2022/12/28 05:24:19;;;;;;;21.77;11.05;;;;;;;7.60;78.75;101162.31;5092424;28;20024;-26
2022/12/28 05:26:45;;;;;;;20.77;10.65;;;;;;;7.52;79.22;101157.03;5092406;28;20115;-27
2022/12/28 05:29:10;;;;;;;21.90;11.05;;;;;;;7.30;78.79;101127.63;5092360;28;20032;-29
2022/12/28 05:31:35;;;;;;;19.40;10.05;;;;;;;7.61;78.84;101164.81;5092146;28;20031;-27
2022/12/28 05:34:01;;;;;;;18.98;10.43;;;;;;;7.50;78.60;101151.94;5091942;28;20110;-27
2022/12/28 05:36:26;;;;;;;22.63;10.57;;;;;;;7.55;78.35;101165.50;5092099;28;20074;-26
2022/12/28 05:38:54;;;;;;;21.92;11.20;;;;;;;7.66;78.41;101185.53;5092302;28;20435;-26
2022/12/28 05:41:25;;;;;;;20.92;10.15;;;;;;;7.55;78.46;101175.28;5092179;28;20034;-27
2022/12/28 05:43:51;;;;;;;17.83;9.98;;;;;;;7.43;78.31;101164.22;5091982;28;20049;-27
2022/12/28 05:46:32;;;;;;;17.70;9.65;;;;;;;7.52;78.34;101183.59;5091998;28;20028;-26
2022/12/28 05:48:59;;;;;;;17.88;8.98;;;;;;;7.39;78.10;101153.09;5073630;28;20480;-30
2022/12/28 05:51:27;;;;;;;19.27;10.35;;;;;;;7.42;78.82;101178.50;5090799;28;20157;-28
2022/12/28 05:53:53;;;;;;;21.95;12.52;;;;;;;7.21;80.11;101203.75;5091861;28;20020;-27
2022/12/28 05:56:21;;;;;;;17.27;9.30;;;;;;;7.41;78.68;101200.72;5091763;28;20064;-29
2022/12/28 05:58:52;;;;;;;23.60;9.52;;;;;;;7.09;80.00;101193.66;5091753;28;20103;-29
2022/12/28 06:01:21;;;;;;;23.42;11.95;;;;;;;7.08;80.93;101208.75;5091742;28;20114;-28
2022/12/28 06:03:50;;;;;;;301.75;118.03;;;;;;;6.88;81.75;101202.13;5091653;28;20024;-27
2022/12/28 06:06:18;;;;;;;64.75;31.95;;;;;;;6.88;81.33;101189.69;5091532;28;20024;-28
2022/12/28 06:08:45;;;;;;;144.40;55.83;;;;;;;7.01;81.60;101207.75;5091636;28;20502;-25
2022/12/28 06:11:16;;;;;;;55.28;29.15;;;;;;;6.99;81.46;101202.63;5091491;28;20038;-27
2022/12/28 06:13:41;;;;;;;36.83;18.25;;;;;;;6.94;81.83;101218.19;5091265;28;20437;-26
2022/12/28 06:16:09;;;;;;;33.75;21.83;;;;;;;6.72;82.50;101181.75;5091069;28;20023;-27
2022/12/28 06:18:35;;;;;;;31.38;18.08;;;;;;;6.92;82.20;101219.34;5091334;28;20103;-26
2022/12/28 06:21:05;;;;;;;34.08;22.83;;;;;;;7.00;81.84;101206.09;5073033;28;20081;-28
2022/12/28 06:23:31;;;;;;;27.25;19.25;;;;;;;7.14;81.44;101216.03;5073318;28;20077;-27
2022/12/28 06:26:01;;;;;;;24.33;16.48;;;;;;;7.26;80.77;101215.69;5072893;28;20458;-28
2022/12/28 06:28:27;;;;;;;21.52;13.10;;;;;;;7.49;79.59;101226.41;5072855;28;20510;-27
2022/12/28 06:31:04;;;;;;;25.90;14.52;;;;;;;7.36;79.92;101226.94;5091306;28;20036;-27
2022/12/28 06:33:30;;;;;;;29.35;17.13;;;;;;;7.02;81.54;101230.63;5091503;28;20032;-25
2022/12/28 06:35:55;;;;;;;50.20;27.90;;;;;;;6.94;82.53;101233.28;5091060;28;20142;-27
2022/12/28 06:38:20;;;;;;;63.33;36.58;;;;;;;6.98;82.33;101235.44;5072562;28;20574;-27
2022/12/28 06:40:46;;;;;;;46.40;28.17;;;;;;;7.12;81.35;101231.28;5091174;28;20039;-33
2022/12/28 06:43:11;;;;;;;37.20;20.77;;;;;;;7.26;80.83;101236.91;5091060;28;20035;-27
2022/12/28 06:45:37;;;;;;;35.88;21.52;;;;;;;7.24;80.28;101229.94;5091004;28;20086;-27
2022/12/28 06:48:02;;;;;;;83.78;51.47;;;;;;;7.23;81.06;101238.91;5090858;28;20020;-28
2022/12/28 06:50:28;;;;;;;75.47;50.95;;;;;;;7.37;80.39;101236.53;5090839;28;20036;-28
2022/12/28 06:52:53;;;;;;;42.72;34.08;;;;;;;7.53;79.51;101254.28;5090285;28;20027;-26
2022/12/28 06:55:18;;;;;;;40.03;25.88;;;;;;;7.09;80.45;101221.03;5090748;28;20465;-27
2022/12/28 06:57:44;;;;;;;37.80;22.42;;;;;;;7.31;80.66;101246.00;5090453;28;20099;-30
2022/12/28 07:00:10;;;;;;;32.50;20.20;;;;;;;7.20;80.22;101241.06;5090672;28;20031;-27
2022/12/28 07:02:35;;;;;;;34.95;21.20;;;;;;;7.17;81.27;101249.34;5090584;28;20032;-27
2022/12/28 07:05:01;;;;;;;47.03;30.50;;;;;;;7.09;81.70;101252.84;5090429;28;20485;-26
2022/12/28 07:07:26;;;;;;;32.70;24.08;;;;;;;7.13;81.62;101248.88;5090421;28;20032;-28
2022/12/28 07:09:51;;;;;;;23.02;17.10;;;;;;;7.10;81.00;101238.56;5072296;28;20028;-28
2022/12/28 07:12:17;;;;;;;27.40;21.88;;;;;;;7.44;80.29;101262.25;5090117;28;20059;-29
2022/12/28 07:14:42;;;;;;;20.17;12.45;;;;;;;7.30;80.78;101264.78;5090561;28;20084;-28
2022/12/28 07:17:08;;;;;;;22.35;14.60;;;;;;;7.34;79.62;101239.56;5089024;28;20020;-27
2022/12/28 07:19:33;;;;;;;21.13;13.07;;;;;;;7.42;80.04;101258.94;5090200;28;20040;-26
2022/12/28 07:22:00;;;;;;;22.33;15.27;;;;;;;7.53;79.88;101265.72;5090034;28;20075;-28
2022/12/28 07:24:25;;;;;;;23.77;13.60;;;;;;;7.71;78.82;101267.34;5071637;28;20023;-28
2022/12/28 07:26:50;;;;;;;41.67;26.88;;;;;;;7.70;78.60;101270.97;5089840;28;20039;-29
2022/12/28 07:29:16;;;;;;;36.85;20.95;;;;;;;7.52;78.72;101269.38;5090074;28;20066;-27
2022/12/28 07:31:42;;;;;;;48.67;28.67;;;;;;;7.65;78.81;101268.84;5089809;28;20048;-30
2022/12/28 07:34:08;;;;;;;45.00;27.30;;;;;;;7.64;78.41;101286.59;5089632;28;20027;-31
2022/12/28 07:36:33;;;;;;;29.88;20.52;;;;;;;7.64;78.69;101283.94;5089960;28;20036;-28
2022/12/28 07:38:59;;;;;;;56.22;40.30;;;;;;;7.70;78.77;101270.97;5090166;28;20035;-27
2022/12/28 07:41:31;;;;;;;50.67;35.38;;;;;;;7.76;78.67;101286.22;5070908;28;20484;-30
2022/12/28 07:43:57;;;;;;;33.92;24.40;;;;;;;7.98;77.26;101300.59;5071677;28;20027;-26
2022/12/28 07:46:35;;;;;;;35.75;23.50;;;;;;;7.85;77.83;101309.13;5089615;28;20535;-30
2022/12/28 07:49:01;;;;;;;26.90;17.55;;;;;;;7.99;77.62;101308.41;5090082;28;20483;-27
2022/12/28 07:51:32;;;;;;;68.05;35.47;;;;;;;11.97;69.51;101289.22;5089593;28;20107;-28
2022/12/28 07:53:59;;;;;;;68.60;31.88;;;;;;;14.14;60.24;101311.25;5089400;28;20034;-26
2022/12/28 07:56:27;;;;;;;73.88;32.10;;;;;;;14.06;57.63;101331.06;5089442;28;20032;-26
2022/12/28 07:58:56;;;;;;;146.60;72.55;;;;;;;12.96;56.66;101313.81;5089770;28;20032;-28
2022/12/28 08:01:24;;;;;;;30.20;16.33;;;;;;;11.23;62.50;101349.28;5089425;28;20106;-27
2022/12/28 08:03:58;;;;;;;35.88;21.40;;;;;;;10.50;65.19;101331.69;5071618;28;20081;-28
2022/12/28 08:06:25;;;;;;;50.00;32.45;;;;;;;10.19;67.47;101354.84;5070862;28;20082;-27
2022/12/28 08:08:54;;;;;;;20.25;10.70;;;;;;;9.77;69.72;101344.84;5071451;28;20024;-26
2022/12/28 08:11:22;;;;;;;23.40;14.25;;;;;;;9.54;70.97;101353.72;5089432;28;20028;-27
2022/12/28 08:13:49;;;;;;;;;;;;;;;9.44;71.65;101350.47;5089854;28;20496;-27
2022/12/28 08:16:19;;;;;;;53.10;34.63;;;;;;;9.55;71.34;101350.03;5089073;28;19919;-26
2022/12/28 08:18:45;;;;;;;32.25;21.60;;;;;;;9.39;71.38;101327.03;5089433;28;20036;-28
2022/12/28 08:21:35;;;;;;;31.00;19.20;;;;;;;9.58;71.53;101357.66;5088927;28;20081;-26
2022/12/28 08:24:01;;;;;;;33.45;19.17;;;;;;;9.40;72.02;101362.50;5065829;28;20044;-27
2022/12/28 08:26:30;;;;;;;35.28;21.60;;;;;;;9.59;71.94;101353.97;5071130;28;20078;-27
2022/12/28 08:28:58;;;;;;;29.90;17.80;;;;;;;9.57;71.55;101332.03;5089367;28;20020;-25
2022/12/28 08:31:26;;;;;;;32.38;22.58;;;;;;;9.73;71.13;101348.88;5089140;28;20028;-26
2022/12/28 08:33:52;;;;;;;;;;;;;;;9.64;71.44;101354.28;5090083;28;20077;-26
2022/12/28 08:36:18;;;;;;;48.35;29.83;;;;;;;9.55;71.57;101342.03;5089140;28;19912;-27
2022/12/28 08:38:44;;;;;;;38.50;24.70;;;;;;;9.68;71.30;101353.91;5089192;28;20556;-27
2022/12/28 08:41:12;;;;;;;37.28;21.70;;;;;;;9.68;71.47;101335.25;5070898;28;20063;-26
2022/12/28 08:43:38;;;;;;;25.13;15.70;;;;;;;9.84;71.34;101345.75;5089084;28;20115;-28
2022/12/28 08:46:05;;;;;;;37.15;21.42;;;;;;;9.84;71.49;101351.06;5088732;28;20567;-27
2022/12/28 08:48:32;;;;;;;177.50;105.55;;;;;;;9.90;71.85;101349.53;5089575;28;20110;-27
2022/12/28 08:51:13;;;;;;;25.23;15.57;;;;;;;9.57;72.84;101344.53;5071012;28;20031;-28
2022/12/28 08:53:39;;;;;;;28.90;24.48;;;;;;;9.54;73.08;101353.72;5092141;28;20032;-27
2022/12/28 08:56:11;;;;;;;41.60;32.70;;;;;;;9.48;72.80;101335.78;5074783;28;20032;-26
2022/12/28 08:58:38;;;;;;;34.05;26.23;;;;;;;9.69;71.50;101364.38;5092752;28;20020;-28
2022/12/28 09:01:09;;;;;;;35.95;23.73;;;;;;;9.62;71.99;101363.44;5093055;28;20028;-26
2022/12/28 09:03:37;;;;;;;34.40;26.02;;;;;;;9.73;70.55;101365.69;5092996;28;20039;-29
2022/12/28 09:06:08;;;;;;;35.28;26.33;;;;;;;9.64;71.84;101345.44;5074258;28;20027;-28
2022/12/28 09:08:33;;;;;;;47.45;35.92;;;;;;;9.83;71.80;101354.78;5092870;28;20132;-26
2022/12/28 09:11:05;;;;;;;34.72;27.40;;;;;;;9.70;70.79;101371.34;5074422;28;20057;-26
2022/12/28 09:13:31;;;;;;;32.35;24.58;;;;;;;9.78;71.27;101359.81;5092990;28;20032;-28
2022/12/28 09:16:02;;;;;;;20.95;15.38;;;;;;;9.79;70.69;101354.31;5092693;28;20028;-26
2022/12/28 09:18:27;;;;;;;26.40;22.08;;;;;;;9.83;70.36;101349.44;5092903;28;20080;-27
2022/12/28 09:20:53;;;;;;;16.40;10.93;;;;;;;9.79;70.10;101364.13;5073016;28;20035;-28
2022/12/28 09:23:18;;;;;;;23.40;16.90;;;;;;;9.93;69.38;101359.81;5092517;28;20024;-27
2022/12/28 09:25:43;;;;;;;23.30;17.35;;;;;;;9.71;68.00;101350.91;5092046;28;20028;-29
2022/12/28 09:28:09;;;;;;;15.55;7.93;;;;;;;9.50;66.76;101355.09;5092302;28;20024;-26
2022/12/28 09:30:34;;;;;;;14.23;8.02;;;;;;;9.47;67.40;101352.75;5092060;28;20051;-27
2022/12/28 09:35:44;;;;;;;17.08;9.98;;;;;;;9.52;67.81;101350.41;5092461;28;20043;-26
2022/12/28 09:38:09;;;;;;;13.02;10.02;;;;;;;9.43;68.66;101343.47;5073535;28;20032;-27
2022/12/28 09:40:36;;;;;;;16.88;9.68;;;;;;;9.70;69.21;101333.25;5073700;28;20038;-26
2022/12/28 09:43:02;;;;;;;17.45;11.35;;;;;;;9.47;69.56;101344.78;5091984;28;20419;-27
2022/12/28 09:45:27;;;;;;;12.18;6.97;;;;;;;9.38;69.42;101311.25;5092030;28;20024;-26
2022/12/28 09:47:57;;;;;;;17.92;11.32;;;;;;;9.27;71.86;101328.47;5091952;28;20031;-27
2022/12/28 09:50:30;;;;;;;16.17;9.63;;;;;;;9.38;72.19;101335.22;5073449;28;20535;-31
2022/12/28 09:53:14;;;;;;;13.40;7.65;;;;;;;9.31;73.26;101344.91;5091654;28;20031;-28
2022/12/28 09:55:42;;;;;;;14.68;7.07;;;;;;;9.56;73.11;101335.72;5091805;28;20024;-27
2022/12/28 09:58:15;;;;;;;16.40;10.02;;;;;;;9.61;73.98;101329.84;5091490;28;20030;-28
2022/12/28 10:00:44;;;;;;;14.35;9.55;;;;;;;9.72;73.93;101325.91;5073379;28;20697;-26
2022/12/28 10:03:40;;;;;;;19.33;11.32;;;;;;;9.64;74.11;101330.31;5090964;28;20032;-30
2022/12/28 10:06:20;;;;;;;16.83;10.48;;;;;;;9.70;74.81;101341.22;5091375;28;20035;-28
2022/12/28 10:08:48;;;;;;;22.63;13.18;;;;;;;9.70;73.94;101302.09;5091725;28;20488;-28
2022/12/28 10:11:19;;;;;;;;;;;;;;;9.87;73.44;101324.09;5091768;28;20020;-28
2022/12/28 10:13:46;;;;;;;18.60;9.38;;;;;;;9.77;74.04;101312.88;5091208;28;19912;-27
2022/12/28 10:16:17;;;;;;;20.60;9.50;;;;;;;9.76;74.92;101316.53;5090960;28;20031;-30
2022/12/28 10:18:43;;;;;;;16.38;7.57;;;;;;;9.82;73.22;101311.28;5072928;28;20157;-26
2022/12/28 10:21:10;;;;;;;12.60;7.38;;;;;;;9.65;73.90;101289.34;5091044;28;20101;-29
2022/12/28 10:23:37;;;;;;;10.85;7.45;;;;;;;9.74;74.39;101308.72;5073167;28;20107;-29
2022/12/28 10:26:04;;;;;;;14.20;8.93;;;;;;;9.67;74.34;101296.34;5090682;28;20031;-27
2022/12/28 10:28:40;;;;;;;17.00;11.38;;;;;;;9.87;73.95;101297.44;5091272;28;20484;-29
2022/12/28 10:31:08;;;;;;;30.30;17.35;;;;;;;9.87;73.50;101286.78;5090984;28;20032;-26
2022/12/28 10:33:41;;;;;;;;;;;;;;;9.88;73.41;101303.59;5091592;28;20028;-30
2022/12/28 10:36:14;;;;;;;15.30;10.18;;;;;;;9.80;73.05;101296.50;5090618;28;20006;-27
2022/12/28 10:38:51;;;;;;;24.05;12.75;;;;;;;9.81;72.27;101299.00;5072705;28;20031;-26
2022/12/28 10:41:17;;;;;;;14.80;9.25;;;;;;;9.69;73.41;101299.63;5091175;28;20024;-28
2022/12/28 10:43:48;;;;;;;13.30;8.52;;;;;;;9.82;73.29;101299.81;5091040;28;20035;-27
2022/12/28 10:46:27;;;;;;;18.80;11.57;;;;;;;10.04;72.84;101304.22;5072272;28;20130;-27
2022/12/28 10:48:56;;;;;;;14.68;8.85;;;;;;;9.94;72.41;101308.19;5090693;28;20043;-28
2022/12/28 10:51:24;;;;;;;14.07;8.30;;;;;;;9.99;72.29;101311.09;5090844;28;20047;-27
2022/12/28 10:53:53;;;;;;;24.10;15.27;;;;;;;9.91;72.78;101296.06;5090882;28;20540;-27
2022/12/28 10:56:31;;;;;;;23.70;15.98;;;;;;;10.17;71.77;101308.88;5072288;28;20036;-27
2022/12/28 10:59:11;;;;;;;16.30;10.52;;;;;;;10.02;72.23;101303.56;5090677;28;20028;-34
2022/12/28 11:01:38;;;;;;;22.63;14.38;;;;;;;10.01;71.43;101291.28;5090315;28;20031;-28
2022/12/28 11:04:07;;;;;;;17.27;11.45;;;;;;;9.98;71.61;101272.16;5090253;28;20107;-27
2022/12/28 11:06:35;;;;;;;129.82;77.70;;;;;;;10.27;70.45;101282.75;5090555;28;20519;-29
2022/12/28 11:09:11;;;;;;;20.48;12.80;;;;;;;10.35;70.33;101289.88;5090430;28;20031;-26
2022/12/28 11:11:37;;;;;;;23.15;14.63;;;;;;;10.18;70.33;101272.41;5090301;28;20017;-28
2022/12/28 11:14:15;;;;;;;13.57;9.20;;;;;;;10.16;70.79;101285.91;5089914;28;20043;-29
2022/12/28 11:16:41;;;;;;;12.27;7.88;;;;;;;10.32;70.94;101290.25;5089585;28;20020;-28
2022/12/28 11:19:06;;;;;;;22.60;14.25;;;;;;;10.19;71.66;101284.72;5072017;28;20039;-26
2022/12/28 11:21:34;;;;;;;22.30;14.57;;;;;;;10.54;69.90;101283.13;5089892;28;20075;-31
2022/12/28 11:23:59;;;;;;;14.00;8.25;;;;;;;10.39;69.57;101275.16;5089990;28;20030;-31
2022/12/28 11:26:27;;;;;;;16.50;10.25;;;;;;;10.54;70.61;101296.47;5089662;28;20116;-29
2022/12/28 11:28:53;;;;;;;22.67;13.87;;;;;;;10.86;69.90;101296.97;5071869;28;20060;-27
2022/12/28 11:31:36;;;;;;;18.48;11.68;;;;;;;11.09;69.32;101279.94;5090068;28;20024;-26
2022/12/28 11:34:05;;;;;;;22.17;14.15;;;;;;;11.12;70.91;101283.06;5090020;28;20089;-28
2022/12/28 11:36:37;;;;;;;39.90;17.05;;;;;;;11.33;68.89;101278.69;5071556;28;20092;-26
2022/12/28 11:39:24;;;;;;;11.15;7.15;;;;;;;11.62;67.93;101270.47;5089409;28;20028;-28
2022/12/28 11:41:51;;;;;;;13.27;7.85;;;;;;;11.41;67.71;101257.19;5089681;28;20042;-27
2022/12/28 11:44:39;;;;;;;13.13;8.48;;;;;;;11.14;68.28;101273.00;5089410;28;20035;-26
2022/12/28 11:47:16;;;;;;;;;;;;;;;11.08;69.30;101273.78;5089289;28;20045;-28
2022/12/28 11:49:44;;;;;;;17.23;9.40;;;;;;;11.34;67.72;101277.66;5089690;28;19915;-26
2022/12/28 11:52:15;;;;;;;14.23;7.30;;;;;;;12.04;64.71;101290.06;5089351;28;20123;-27
2022/12/28 11:54:51;;;;;;;17.30;8.57;;;;;;;11.95;63.40;101280.56;5071320;28;20037;-27
2022/12/28 11:57:36;;;;;;;12.05;7.05;;;;;;;11.51;64.74;101287.06;5089367;28;20028;-27